sensor_id;sensor_type;location;lat;lon;timestamp;P1;durP1;ratioP1;P2;durP2;ratioP2
71464;SDS011;59274;49.874;9.154;2023-12-07T00:00:40;14.70;;;6.87;;
71464;SDS011;59274;49.874;9.154;2023-12-07T00:03:05;18.02;;;8.18;;
71464;SDS011;59274;49.874;9.154;2023-12-07T00:05:33;17.65;;;7.60;;
71464;SDS011;59274;49.874;9.154;2023-12-07T00:07:59;16.80;;;8.10;;
71464;SDS011;59274;49.874;9.154;2023-12-07T00:10:24;17.92;;;7.78;;
71464;SDS011;59274;49.874;9.154;2023-12-07T00:12:50;17.97;;;7.80;;
71464;SDS011;59274;49.874;9.154;2023-12-07T00:15:15;15.37;;;7.63;;
71464;SDS011;59274;49.874;9.154;2023-12-07T00:17:41;19.40;;;8.17;;
71464;SDS011;59274;49.874;9.154;2023-12-07T00:20:10;15.48;;;7.88;;
71464;SDS011;59274;49.874;9.154;2023-12-07T00:22:36;18.50;;;8.52;;
71464;SDS011;59274;49.874;9.154;2023-12-07T00:25:01;16.80;;;7.80;;
71464;SDS011;59274;49.874;9.154;2023-12-07T00:27:26;17.23;;;8.00;;
71464;SDS011;59274;49.874;9.154;2023-12-07T00:29:52;16.00;;;8.13;;
71464;SDS011;59274;49.874;9.154;2023-12-07T00:32:17;15.47;;;8.47;;
71464;SDS011;59274;49.874;9.154;2023-12-07T00:34:43;20.10;;;9.07;;
71464;SDS011;59274;49.874;9.154;2023-12-07T00:37:08;16.00;;;7.67;;
71464;SDS011;59274;49.874;9.154;2023-12-07T00:39:34;16.90;;;7.83;;
71464;SDS011;59274;49.874;9.154;2023-12-07T00:42:00;17.52;;;7.60;;
71464;SDS011;59274;49.874;9.154;2023-12-07T00:44:25;16.43;;;7.90;;
71464;SDS011;59274;49.874;9.154;2023-12-07T00:46:50;18.20;;;8.40;;
71464;SDS011;59274;49.874;9.154;2023-12-07T00:49:16;18.57;;;7.97;;
71464;SDS011;59274;49.874;9.154;2023-12-07T00:51:41;16.83;;;8.37;;
71464;SDS011;59274;49.874;9.154;2023-12-07T00:54:07;16.77;;;8.02;;
71464;SDS011;59274;49.874;9.154;2023-12-07T00:56:32;17.38;;;8.13;;
71464;SDS011;59274;49.874;9.154;2023-12-07T00:58:57;17.03;;;8.13;;
71464;SDS011;59274;49.874;9.154;2023-12-07T01:01:23;18.53;;;8.00;;
71464;SDS011;59274;49.874;9.154;2023-12-07T01:03:48;14.87;;;7.20;;
71464;SDS011;59274;49.874;9.154;2023-12-07T01:06:13;16.97;;;7.83;;
71464;SDS011;59274;49.874;9.154;2023-12-07T01:08:41;14.48;;;7.93;;
71464;SDS011;59274;49.874;9.154;2023-12-07T01:11:07;16.30;;;7.23;;
71464;SDS011;59274;49.874;9.154;2023-12-07T01:13:32;14.68;;;7.30;;
71464;SDS011;59274;49.874;9.154;2023-12-07T01:15:58;15.25;;;7.35;;
71464;SDS011;59274;49.874;9.154;2023-12-07T01:18:23;15.17;;;7.93;;
71464;SDS011;59274;49.874;9.154;2023-12-07T01:20:48;14.60;;;7.80;;
71464;SDS011;59274;49.874;9.154;2023-12-07T01:23:14;19.40;;;7.20;;
71464;SDS011;59274;49.874;9.154;2023-12-07T01:25:40;17.73;;;8.30;;
71464;SDS011;59274;49.874;9.154;2023-12-07T01:28:05;20.07;;;7.70;;
71464;SDS011;59274;49.874;9.154;2023-12-07T01:30:31;16.50;;;8.30;;
71464;SDS011;59274;49.874;9.154;2023-12-07T01:32:56;16.13;;;8.00;;
71464;SDS011;59274;49.874;9.154;2023-12-07T01:35:22;16.77;;;7.87;;
71464;SDS011;59274;49.874;9.154;2023-12-07T01:37:47;19.53;;;8.50;;
71464;SDS011;59274;49.874;9.154;2023-12-07T01:40:13;17.80;;;7.72;;
71464;SDS011;59274;49.874;9.154;2023-12-07T01:42:40;16.30;;;8.10;;
71464;SDS011;59274;49.874;9.154;2023-12-07T01:45:06;16.52;;;7.65;;
71464;SDS011;59274;49.874;9.154;2023-12-07T01:47:32;16.83;;;7.85;;
71464;SDS011;59274;49.874;9.154;2023-12-07T01:50:00;17.47;;;7.87;;
71464;SDS011;59274;49.874;9.154;2023-12-07T01:52:26;16.17;;;8.02;;
71464;SDS011;59274;49.874;9.154;2023-12-07T01:54:54;16.65;;;7.60;;
71464;SDS011;59274;49.874;9.154;2023-12-07T01:57:20;17.83;;;8.03;;
71464;SDS011;59274;49.874;9.154;2023-12-07T01:59:45;19.27;;;7.82;;
71464;SDS011;59274;49.874;9.154;2023-12-07T02:02:11;15.77;;;6.70;;
71464;SDS011;59274;49.874;9.154;2023-12-07T02:04:37;15.52;;;7.03;;
71464;SDS011;59274;49.874;9.154;2023-12-07T02:07:03;15.52;;;7.25;;
71464;SDS011;59274;49.874;9.154;2023-12-07T02:09:29;15.50;;;7.80;;
71464;SDS011;59274;49.874;9.154;2023-12-07T02:11:55;18.17;;;7.22;;
71464;SDS011;59274;49.874;9.154;2023-12-07T02:14:20;18.00;;;7.33;;
71464;SDS011;59274;49.874;9.154;2023-12-07T02:16:48;15.77;;;6.93;;
71464;SDS011;59274;49.874;9.154;2023-12-07T02:22:45;14.38;;;6.80;;
71464;SDS011;59274;49.874;9.154;2023-12-07T02:25:18;15.15;;;6.78;;
71464;SDS011;59274;49.874;9.154;2023-12-07T02:27:47;17.30;;;7.50;;
71464;SDS011;59274;49.874;9.154;2023-12-07T02:30:13;16.47;;;7.03;;
71464;SDS011;59274;49.874;9.154;2023-12-07T02:32:43;18.10;;;7.97;;
71464;SDS011;59274;49.874;9.154;2023-12-07T02:35:10;17.10;;;8.00;;
71464;SDS011;59274;49.874;9.154;2023-12-07T02:37:49;15.70;;;8.32;;
71464;SDS011;59274;49.874;9.154;2023-12-07T02:40:17;20.77;;;8.40;;
71464;SDS011;59274;49.874;9.154;2023-12-07T02:42:51;15.85;;;7.93;;
71464;SDS011;59274;49.874;9.154;2023-12-07T02:45:20;17.17;;;7.32;;
71464;SDS011;59274;49.874;9.154;2023-12-07T02:47:46;16.00;;;7.30;;
71464;SDS011;59274;49.874;9.154;2023-12-07T02:50:11;13.80;;;7.80;;
71464;SDS011;59274;49.874;9.154;2023-12-07T02:52:38;14.88;;;6.53;;
71464;SDS011;59274;49.874;9.154;2023-12-07T02:55:04;16.83;;;7.22;;
71464;SDS011;59274;49.874;9.154;2023-12-07T02:57:30;16.00;;;7.47;;
71464;SDS011;59274;49.874;9.154;2023-12-07T02:59:55;18.23;;;8.07;;
71464;SDS011;59274;49.874;9.154;2023-12-07T03:02:21;16.33;;;7.67;;
71464;SDS011;59274;49.874;9.154;2023-12-07T03:04:46;16.83;;;8.35;;
71464;SDS011;59274;49.874;9.154;2023-12-07T03:07:12;16.37;;;7.87;;
71464;SDS011;59274;49.874;9.154;2023-12-07T03:09:38;18.60;;;7.70;;
71464;SDS011;59274;49.874;9.154;2023-12-07T03:12:03;15.70;;;7.45;;
71464;SDS011;59274;49.874;9.154;2023-12-07T03:14:29;13.77;;;6.97;;
71464;SDS011;59274;49.874;9.154;2023-12-07T03:16:54;15.48;;;7.68;;
71464;SDS011;59274;49.874;9.154;2023-12-07T03:19:20;15.63;;;7.73;;
71464;SDS011;59274;49.874;9.154;2023-12-07T03:21:45;16.63;;;7.50;;
71464;SDS011;59274;49.874;9.154;2023-12-07T03:24:11;20.53;;;7.63;;
71464;SDS011;59274;49.874;9.154;2023-12-07T03:26:39;15.03;;;7.30;;
71464;SDS011;59274;49.874;9.154;2023-12-07T03:29:05;18.20;;;7.50;;
71464;SDS011;59274;49.874;9.154;2023-12-07T03:31:30;14.80;;;7.40;;
71464;SDS011;59274;49.874;9.154;2023-12-07T03:33:56;15.40;;;7.82;;
71464;SDS011;59274;49.874;9.154;2023-12-07T03:36:22;17.73;;;7.07;;
71464;SDS011;59274;49.874;9.154;2023-12-07T03:38:48;15.55;;;7.15;;
71464;SDS011;59274;49.874;9.154;2023-12-07T03:41:14;17.48;;;7.60;;
71464;SDS011;59274;49.874;9.154;2023-12-07T03:43:39;18.73;;;7.70;;
71464;SDS011;59274;49.874;9.154;2023-12-07T03:46:05;18.13;;;8.03;;
71464;SDS011;59274;49.874;9.154;2023-12-07T03:48:31;20.55;;;8.80;;
71464;SDS011;59274;49.874;9.154;2023-12-07T03:50:57;20.30;;;8.82;;
71464;SDS011;59274;49.874;9.154;2023-12-07T03:53:22;18.83;;;8.10;;
71464;SDS011;59274;49.874;9.154;2023-12-07T03:55:48;20.63;;;8.30;;
71464;SDS011;59274;49.874;9.154;2023-12-07T03:58:13;15.30;;;7.33;;
71464;SDS011;59274;49.874;9.154;2023-12-07T04:00:39;17.33;;;7.20;;
71464;SDS011;59274;49.874;9.154;2023-12-07T04:03:04;18.23;;;7.97;;
71464;SDS011;59274;49.874;9.154;2023-12-07T04:05:30;18.20;;;7.70;;
71464;SDS011;59274;49.874;9.154;2023-12-07T04:07:57;18.30;;;7.63;;
71464;SDS011;59274;49.874;9.154;2023-12-07T04:10:22;19.67;;;8.35;;
71464;SDS011;59274;49.874;9.154;2023-12-07T04:12:47;19.15;;;7.90;;
71464;SDS011;59274;49.874;9.154;2023-12-07T04:15:13;21.47;;;8.20;;
71464;SDS011;59274;49.874;9.154;2023-12-07T04:17:38;20.67;;;8.03;;
71464;SDS011;59274;49.874;9.154;2023-12-07T04:20:04;19.13;;;8.05;;
71464;SDS011;59274;49.874;9.154;2023-12-07T04:22:30;17.17;;;7.68;;
71464;SDS011;59274;49.874;9.154;2023-12-07T04:24:56;18.25;;;7.65;;
71464;SDS011;59274;49.874;9.154;2023-12-07T04:27:21;18.77;;;7.77;;
71464;SDS011;59274;49.874;9.154;2023-12-07T04:29:47;19.20;;;8.10;;
71464;SDS011;59274;49.874;9.154;2023-12-07T04:32:12;19.43;;;7.40;;
71464;SDS011;59274;49.874;9.154;2023-12-07T04:34:38;20.40;;;7.90;;
71464;SDS011;59274;49.874;9.154;2023-12-07T04:37:03;16.50;;;8.20;;
71464;SDS011;59274;49.874;9.154;2023-12-07T04:39:28;19.30;;;8.03;;
71464;SDS011;59274;49.874;9.154;2023-12-07T04:41:54;15.57;;;6.97;;
71464;SDS011;59274;49.874;9.154;2023-12-07T04:44:20;19.80;;;8.13;;
71464;SDS011;59274;49.874;9.154;2023-12-07T04:46:45;18.80;;;8.35;;
71464;SDS011;59274;49.874;9.154;2023-12-07T04:49:10;17.20;;;7.20;;
71464;SDS011;59274;49.874;9.154;2023-12-07T04:51:36;17.97;;;8.13;;
71464;SDS011;59274;49.874;9.154;2023-12-07T04:54:01;15.07;;;7.75;;
71464;SDS011;59274;49.874;9.154;2023-12-07T04:56:27;15.50;;;8.13;;
71464;SDS011;59274;49.874;9.154;2023-12-07T04:58:52;20.57;;;9.73;;
71464;SDS011;59274;49.874;9.154;2023-12-07T05:01:18;23.13;;;9.43;;
71464;SDS011;59274;49.874;9.154;2023-12-07T05:03:46;24.23;;;10.10;;
71464;SDS011;59274;49.874;9.154;2023-12-07T05:06:14;18.87;;;8.53;;
71464;SDS011;59274;49.874;9.154;2023-12-07T05:08:39;17.33;;;8.80;;
71464;SDS011;59274;49.874;9.154;2023-12-07T05:11:05;23.07;;;10.03;;
71464;SDS011;59274;49.874;9.154;2023-12-07T05:13:31;22.20;;;9.60;;
71464;SDS011;59274;49.874;9.154;2023-12-07T05:15:58;30.17;;;10.95;;
71464;SDS011;59274;49.874;9.154;2023-12-07T05:18:24;36.08;;;12.40;;
71464;SDS011;59274;49.874;9.154;2023-12-07T05:20:50;43.40;;;15.77;;
71464;SDS011;59274;49.874;9.154;2023-12-07T05:23:15;42.57;;;13.30;;
71464;SDS011;59274;49.874;9.154;2023-12-07T05:25:42;46.55;;;13.27;;
71464;SDS011;59274;49.874;9.154;2023-12-07T05:28:08;49.95;;;13.20;;
71464;SDS011;59274;49.874;9.154;2023-12-07T05:30:34;31.33;;;11.33;;
71464;SDS011;59274;49.874;9.154;2023-12-07T05:33:01;34.63;;;10.05;;
71464;SDS011;59274;49.874;9.154;2023-12-07T05:35:26;38.80;;;9.63;;
71464;SDS011;59274;49.874;9.154;2023-12-07T05:37:52;29.47;;;10.77;;
71464;SDS011;59274;49.874;9.154;2023-12-07T05:40:17;29.13;;;9.73;;
71464;SDS011;59274;49.874;9.154;2023-12-07T05:42:43;40.65;;;10.57;;
71464;SDS011;59274;49.874;9.154;2023-12-07T05:45:09;36.15;;;10.60;;
71464;SDS011;59274;49.874;9.154;2023-12-07T05:47:35;38.53;;;9.95;;
71464;SDS011;59274;49.874;9.154;2023-12-07T05:50:01;34.25;;;9.57;;
71464;SDS011;59274;49.874;9.154;2023-12-07T05:52:28;32.40;;;10.10;;
71464;SDS011;59274;49.874;9.154;2023-12-07T05:54:54;40.33;;;10.10;;
71464;SDS011;59274;49.874;9.154;2023-12-07T05:57:19;34.67;;;10.73;;
71464;SDS011;59274;49.874;9.154;2023-12-07T05:59:45;28.77;;;9.93;;
71464;SDS011;59274;49.874;9.154;2023-12-07T06:02:10;41.80;;;9.80;;
71464;SDS011;59274;49.874;9.154;2023-12-07T06:04:35;29.30;;;9.60;;
71464;SDS011;59274;49.874;9.154;2023-12-07T06:07:01;28.47;;;9.27;;
71464;SDS011;59274;49.874;9.154;2023-12-07T06:09:27;37.65;;;9.23;;
71464;SDS011;59274;49.874;9.154;2023-12-07T06:11:54;31.88;;;10.13;;
71464;SDS011;59274;49.874;9.154;2023-12-07T06:14:19;26.40;;;10.50;;
71464;SDS011;59274;49.874;9.154;2023-12-07T06:16:45;29.20;;;9.93;;
71464;SDS011;59274;49.874;9.154;2023-12-07T06:19:10;32.27;;;9.93;;
71464;SDS011;59274;49.874;9.154;2023-12-07T06:21:36;34.65;;;10.75;;
71464;SDS011;59274;49.874;9.154;2023-12-07T06:24:01;18.13;;;8.55;;
71464;SDS011;59274;49.874;9.154;2023-12-07T06:26:30;26.67;;;8.90;;
71464;SDS011;59274;49.874;9.154;2023-12-07T06:28:55;24.55;;;8.93;;
71464;SDS011;59274;49.874;9.154;2023-12-07T06:31:27;35.37;;;8.63;;
71464;SDS011;59274;49.874;9.154;2023-12-07T06:33:55;22.37;;;9.07;;
71464;SDS011;59274;49.874;9.154;2023-12-07T06:36:21;26.50;;;10.93;;
71464;SDS011;59274;49.874;9.154;2023-12-07T06:38:47;28.83;;;10.93;;
71464;SDS011;59274;49.874;9.154;2023-12-07T06:41:13;28.67;;;11.95;;
71464;SDS011;59274;49.874;9.154;2023-12-07T06:43:40;32.83;;;12.35;;
71464;SDS011;59274;49.874;9.154;2023-12-07T06:46:06;24.97;;;10.47;;
71464;SDS011;59274;49.874;9.154;2023-12-07T06:48:31;21.57;;;8.57;;
71464;SDS011;59274;49.874;9.154;2023-12-07T06:50:56;25.67;;;9.93;;
71464;SDS011;59274;49.874;9.154;2023-12-07T06:53:22;23.08;;;8.57;;
71464;SDS011;59274;49.874;9.154;2023-12-07T06:55:47;21.60;;;7.60;;
71464;SDS011;59274;49.874;9.154;2023-12-07T06:58:13;17.17;;;6.90;;
71464;SDS011;59274;49.874;9.154;2023-12-07T07:00:38;18.50;;;7.50;;
71464;SDS011;59274;49.874;9.154;2023-12-07T07:03:04;20.90;;;8.18;;
71464;SDS011;59274;49.874;9.154;2023-12-07T07:05:31;20.10;;;7.83;;
71464;SDS011;59274;49.874;9.154;2023-12-07T07:07:56;21.02;;;8.07;;
71464;SDS011;59274;49.874;9.154;2023-12-07T07:10:22;19.03;;;8.07;;
71464;SDS011;59274;49.874;9.154;2023-12-07T07:12:47;18.10;;;7.87;;
71464;SDS011;59274;49.874;9.154;2023-12-07T07:15:13;21.27;;;9.23;;
71464;SDS011;59274;49.874;9.154;2023-12-07T07:17:38;20.37;;;9.23;;
71464;SDS011;59274;49.874;9.154;2023-12-07T07:20:03;23.85;;;9.30;;
71464;SDS011;59274;49.874;9.154;2023-12-07T07:22:29;25.13;;;9.77;;
71464;SDS011;59274;49.874;9.154;2023-12-07T07:24:55;23.13;;;9.13;;
71464;SDS011;59274;49.874;9.154;2023-12-07T07:27:20;22.73;;;8.83;;
71464;SDS011;59274;49.874;9.154;2023-12-07T07:29:46;21.60;;;9.03;;
71464;SDS011;59274;49.874;9.154;2023-12-07T07:32:11;24.00;;;9.73;;
71464;SDS011;59274;49.874;9.154;2023-12-07T07:34:37;28.85;;;11.90;;
71464;SDS011;59274;49.874;9.154;2023-12-07T07:37:02;34.63;;;12.25;;
71464;SDS011;59274;49.874;9.154;2023-12-07T07:39:28;30.77;;;11.67;;
71464;SDS011;59274;49.874;9.154;2023-12-07T07:41:53;29.63;;;11.43;;
71464;SDS011;59274;49.874;9.154;2023-12-07T07:44:19;25.43;;;10.73;;
71464;SDS011;59274;49.874;9.154;2023-12-07T07:46:44;25.53;;;11.23;;
71464;SDS011;59274;49.874;9.154;2023-12-07T07:49:11;27.10;;;10.77;;
71464;SDS011;59274;49.874;9.154;2023-12-07T07:51:36;21.23;;;9.87;;
71464;SDS011;59274;49.874;9.154;2023-12-07T07:54:01;20.30;;;9.17;;
71464;SDS011;59274;49.874;9.154;2023-12-07T07:56:27;23.20;;;7.47;;
71464;SDS011;59274;49.874;9.154;2023-12-07T07:58:52;17.95;;;7.85;;
71464;SDS011;59274;49.874;9.154;2023-12-07T08:01:18;25.10;;;8.37;;
71464;SDS011;59274;49.874;9.154;2023-12-07T08:03:43;24.40;;;10.40;;
71464;SDS011;59274;49.874;9.154;2023-12-07T08:06:08;31.47;;;11.63;;
71464;SDS011;59274;49.874;9.154;2023-12-07T08:08:34;37.33;;;13.47;;
71464;SDS011;59274;49.874;9.154;2023-12-07T08:10:59;42.38;;;12.77;;
71464;SDS011;59274;49.874;9.154;2023-12-07T08:13:26;50.15;;;12.35;;
71464;SDS011;59274;49.874;9.154;2023-12-07T08:15:52;41.95;;;11.63;;
71464;SDS011;59274;49.874;9.154;2023-12-07T08:18:18;33.50;;;12.15;;
71464;SDS011;59274;49.874;9.154;2023-12-07T08:20:44;28.73;;;10.80;;
71464;SDS011;59274;49.874;9.154;2023-12-07T08:23:09;30.83;;;11.97;;
71464;SDS011;59274;49.874;9.154;2023-12-07T08:25:35;31.23;;;12.05;;
71464;SDS011;59274;49.874;9.154;2023-12-07T08:28:03;32.20;;;11.82;;
71464;SDS011;59274;49.874;9.154;2023-12-07T08:30:28;27.70;;;11.40;;
71464;SDS011;59274;49.874;9.154;2023-12-07T08:32:54;29.02;;;11.25;;
71464;SDS011;59274;49.874;9.154;2023-12-07T08:35:19;27.30;;;10.50;;
71464;SDS011;59274;49.874;9.154;2023-12-07T08:37:45;30.40;;;11.97;;
71464;SDS011;59274;49.874;9.154;2023-12-07T08:40:10;31.67;;;10.73;;
71464;SDS011;59274;49.874;9.154;2023-12-07T08:42:36;30.30;;;10.40;;
71464;SDS011;59274;49.874;9.154;2023-12-07T08:45:02;29.10;;;12.00;;
71464;SDS011;59274;49.874;9.154;2023-12-07T08:47:27;29.63;;;10.18;;
71464;SDS011;59274;49.874;9.154;2023-12-07T08:49:55;33.90;;;10.50;;
71464;SDS011;59274;49.874;9.154;2023-12-07T08:52:20;25.52;;;10.27;;
71464;SDS011;59274;49.874;9.154;2023-12-07T08:54:46;23.93;;;9.57;;
71464;SDS011;59274;49.874;9.154;2023-12-07T08:57:11;26.83;;;10.37;;
71464;SDS011;59274;49.874;9.154;2023-12-07T08:59:37;30.90;;;10.98;;
71464;SDS011;59274;49.874;9.154;2023-12-07T09:02:03;32.13;;;12.20;;
71464;SDS011;59274;49.874;9.154;2023-12-07T09:04:28;29.38;;;11.73;;
71464;SDS011;59274;49.874;9.154;2023-12-07T09:06:54;26.02;;;10.40;;
71464;SDS011;59274;49.874;9.154;2023-12-07T09:09:19;24.07;;;10.50;;
71464;SDS011;59274;49.874;9.154;2023-12-07T09:11:45;26.48;;;10.15;;
71464;SDS011;59274;49.874;9.154;2023-12-07T09:14:11;22.77;;;9.87;;
71464;SDS011;59274;49.874;9.154;2023-12-07T09:16:42;29.27;;;10.80;;
71464;SDS011;59274;49.874;9.154;2023-12-07T09:19:09;22.85;;;9.63;;
71464;SDS011;59274;49.874;9.154;2023-12-07T09:21:35;24.17;;;10.40;;
71464;SDS011;59274;49.874;9.154;2023-12-07T09:24:01;25.25;;;10.00;;
71464;SDS011;59274;49.874;9.154;2023-12-07T09:26:26;25.93;;;10.33;;
71464;SDS011;59274;49.874;9.154;2023-12-07T09:28:52;21.90;;;8.93;;
71464;SDS011;59274;49.874;9.154;2023-12-07T09:31:18;21.57;;;8.40;;
71464;SDS011;59274;49.874;9.154;2023-12-07T09:33:43;20.37;;;9.70;;
71464;SDS011;59274;49.874;9.154;2023-12-07T09:36:08;20.20;;;8.03;;
71464;SDS011;59274;49.874;9.154;2023-12-07T09:38:36;19.77;;;8.00;;
71464;SDS011;59274;49.874;9.154;2023-12-07T09:41:02;19.05;;;8.57;;
71464;SDS011;59274;49.874;9.154;2023-12-07T09:43:28;16.60;;;7.55;;
71464;SDS011;59274;49.874;9.154;2023-12-07T09:45:54;20.93;;;8.23;;
71464;SDS011;59274;49.874;9.154;2023-12-07T09:48:20;15.85;;;7.82;;
71464;SDS011;59274;49.874;9.154;2023-12-07T09:50:46;16.23;;;6.73;;
71464;SDS011;59274;49.874;9.154;2023-12-07T09:53:12;16.02;;;7.25;;
71464;SDS011;59274;49.874;9.154;2023-12-07T09:55:38;16.98;;;8.30;;
71464;SDS011;59274;49.874;9.154;2023-12-07T09:58:04;17.97;;;7.37;;
71464;SDS011;59274;49.874;9.154;2023-12-07T10:00:30;17.08;;;7.50;;
71464;SDS011;59274;49.874;9.154;2023-12-07T10:02:55;16.30;;;7.17;;
71464;SDS011;59274;49.874;9.154;2023-12-07T10:05:21;18.63;;;7.97;;
71464;SDS011;59274;49.874;9.154;2023-12-07T10:07:47;17.97;;;7.83;;
71464;SDS011;59274;49.874;9.154;2023-12-07T10:10:15;20.67;;;8.63;;
71464;SDS011;59274;49.874;9.154;2023-12-07T10:12:46;18.43;;;8.80;;
71464;SDS011;59274;49.874;9.154;2023-12-07T10:15:16;25.08;;;10.05;;
71464;SDS011;59274;49.874;9.154;2023-12-07T10:17:53;21.08;;;9.32;;
71464;SDS011;59274;49.874;9.154;2023-12-07T10:20:20;23.05;;;10.23;;
71464;SDS011;59274;49.874;9.154;2023-12-07T10:23:02;21.45;;;9.18;;
71464;SDS011;59274;49.874;9.154;2023-12-07T10:25:32;18.03;;;7.97;;
71464;SDS011;59274;49.874;9.154;2023-12-07T10:28:00;19.98;;;8.45;;
71464;SDS011;59274;49.874;9.154;2023-12-07T10:30:26;19.63;;;8.82;;
71464;SDS011;59274;49.874;9.154;2023-12-07T10:32:52;20.48;;;8.57;;
71464;SDS011;59274;49.874;9.154;2023-12-07T10:35:18;21.90;;;9.80;;
71464;SDS011;59274;49.874;9.154;2023-12-07T10:37:45;22.88;;;10.15;;
71464;SDS011;59274;49.874;9.154;2023-12-07T10:40:12;24.98;;;11.00;;
71464;SDS011;59274;49.874;9.154;2023-12-07T10:42:37;23.97;;;11.37;;
71464;SDS011;59274;49.874;9.154;2023-12-07T10:45:06;22.10;;;10.30;;
71464;SDS011;59274;49.874;9.154;2023-12-07T10:47:37;22.27;;;11.10;;
71464;SDS011;59274;49.874;9.154;2023-12-07T10:50:06;20.80;;;9.10;;
71464;SDS011;59274;49.874;9.154;2023-12-07T10:52:36;21.98;;;10.23;;
71464;SDS011;59274;49.874;9.154;2023-12-07T10:55:03;19.52;;;9.60;;
71464;SDS011;59274;49.874;9.154;2023-12-07T10:57:32;19.17;;;8.82;;
71464;SDS011;59274;49.874;9.154;2023-12-07T11:00:00;17.63;;;8.02;;
71464;SDS011;59274;49.874;9.154;2023-12-07T11:02:26;19.33;;;8.90;;
71464;SDS011;59274;49.874;9.154;2023-12-07T11:04:55;18.95;;;9.15;;
71464;SDS011;59274;49.874;9.154;2023-12-07T11:07:22;15.90;;;7.47;;
71464;SDS011;59274;49.874;9.154;2023-12-07T11:09:57;14.00;;;6.53;;
71464;SDS011;59274;49.874;9.154;2023-12-07T11:12:29;17.67;;;7.57;;
71464;SDS011;59274;49.874;9.154;2023-12-07T11:15:00;14.27;;;6.37;;
71464;SDS011;59274;49.874;9.154;2023-12-07T11:17:27;15.40;;;7.05;;
71464;SDS011;59274;49.874;9.154;2023-12-07T11:19:52;18.00;;;8.90;;
71464;SDS011;59274;49.874;9.154;2023-12-07T11:22:19;15.82;;;7.05;;
71464;SDS011;59274;49.874;9.154;2023-12-07T11:24:54;14.10;;;7.10;;
71464;SDS011;59274;49.874;9.154;2023-12-07T11:27:22;15.55;;;7.70;;
71464;SDS011;59274;49.874;9.154;2023-12-07T11:29:49;16.83;;;7.20;;
71464;SDS011;59274;49.874;9.154;2023-12-07T11:32:14;17.13;;;8.20;;
71464;SDS011;59274;49.874;9.154;2023-12-07T11:34:40;14.10;;;7.50;;
71464;SDS011;59274;49.874;9.154;2023-12-07T11:37:07;14.70;;;7.20;;
71464;SDS011;59274;49.874;9.154;2023-12-07T11:39:40;16.05;;;7.88;;
71464;SDS011;59274;49.874;9.154;2023-12-07T11:42:15;15.40;;;6.53;;
71464;SDS011;59274;49.874;9.154;2023-12-07T11:44:42;16.03;;;7.67;;
71464;SDS011;59274;49.874;9.154;2023-12-07T11:47:10;16.15;;;7.30;;
71464;SDS011;59274;49.874;9.154;2023-12-07T11:49:41;15.88;;;7.53;;
71464;SDS011;59274;49.874;9.154;2023-12-07T11:52:14;15.77;;;7.20;;
71464;SDS011;59274;49.874;9.154;2023-12-07T11:54:47;14.13;;;7.40;;
71464;SDS011;59274;49.874;9.154;2023-12-07T11:57:14;14.80;;;7.07;;
71464;SDS011;59274;49.874;9.154;2023-12-07T11:59:43;14.93;;;7.25;;
71464;SDS011;59274;49.874;9.154;2023-12-07T12:02:10;14.15;;;6.85;;
71464;SDS011;59274;49.874;9.154;2023-12-07T12:04:36;18.40;;;7.03;;
71464;SDS011;59274;49.874;9.154;2023-12-07T12:07:03;13.50;;;6.57;;
71464;SDS011;59274;49.874;9.154;2023-12-07T12:09:29;14.13;;;6.63;;
71464;SDS011;59274;49.874;9.154;2023-12-07T12:11:54;13.93;;;7.05;;
71464;SDS011;59274;49.874;9.154;2023-12-07T12:14:25;14.00;;;6.87;;
71464;SDS011;59274;49.874;9.154;2023-12-07T12:16:51;14.52;;;6.63;;
71464;SDS011;59274;49.874;9.154;2023-12-07T12:19:16;15.07;;;6.50;;
71464;SDS011;59274;49.874;9.154;2023-12-07T12:21:43;13.70;;;6.50;;
71464;SDS011;59274;49.874;9.154;2023-12-07T12:24:09;12.68;;;6.35;;
71464;SDS011;59274;49.874;9.154;2023-12-07T12:26:37;15.10;;;6.90;;
71464;SDS011;59274;49.874;9.154;2023-12-07T12:29:08;14.88;;;6.53;;
71464;SDS011;59274;49.874;9.154;2023-12-07T12:31:34;12.27;;;6.53;;
71464;SDS011;59274;49.874;9.154;2023-12-07T12:34:01;14.95;;;6.70;;
71464;SDS011;59274;49.874;9.154;2023-12-07T12:36:27;13.20;;;6.25;;
71464;SDS011;59274;49.874;9.154;2023-12-07T12:38:53;14.40;;;5.77;;
71464;SDS011;59274;49.874;9.154;2023-12-07T12:41:19;15.60;;;7.35;;
71464;SDS011;59274;49.874;9.154;2023-12-07T12:43:45;12.35;;;5.97;;
71464;SDS011;59274;49.874;9.154;2023-12-07T12:46:11;12.33;;;5.73;;
71464;SDS011;59274;49.874;9.154;2023-12-07T12:48:52;12.57;;;6.60;;
71464;SDS011;59274;49.874;9.154;2023-12-07T12:51:20;19.05;;;8.27;;
71464;SDS011;59274;49.874;9.154;2023-12-07T12:53:46;14.52;;;7.18;;
71464;SDS011;59274;49.874;9.154;2023-12-07T12:56:13;13.63;;;6.30;;
71464;SDS011;59274;49.874;9.154;2023-12-07T12:58:39;12.43;;;5.87;;
71464;SDS011;59274;49.874;9.154;2023-12-07T13:01:05;10.77;;;5.65;;
71464;SDS011;59274;49.874;9.154;2023-12-07T13:03:31;11.63;;;5.37;;
71464;SDS011;59274;49.874;9.154;2023-12-07T13:05:57;11.75;;;5.82;;
71464;SDS011;59274;49.874;9.154;2023-12-07T13:08:23;10.50;;;5.60;;
71464;SDS011;59274;49.874;9.154;2023-12-07T13:10:48;10.97;;;5.20;;
71464;SDS011;59274;49.874;9.154;2023-12-07T13:13:15;12.82;;;5.05;;
71464;SDS011;59274;49.874;9.154;2023-12-07T13:15:41;10.57;;;4.65;;
71464;SDS011;59274;49.874;9.154;2023-12-07T13:18:07;11.07;;;4.72;;
71464;SDS011;59274;49.874;9.154;2023-12-07T13:20:33;12.03;;;5.33;;
71464;SDS011;59274;49.874;9.154;2023-12-07T13:23:00;12.30;;;5.37;;
71464;SDS011;59274;49.874;9.154;2023-12-07T13:25:25;12.35;;;5.45;;
71464;SDS011;59274;49.874;9.154;2023-12-07T13:27:51;12.87;;;5.23;;
71464;SDS011;59274;49.874;9.154;2023-12-07T13:30:17;12.85;;;5.43;;
71464;SDS011;59274;49.874;9.154;2023-12-07T13:32:42;10.48;;;4.72;;
71464;SDS011;59274;49.874;9.154;2023-12-07T13:35:08;11.53;;;5.53;;
71464;SDS011;59274;49.874;9.154;2023-12-07T13:37:33;13.80;;;6.77;;
71464;SDS011;59274;49.874;9.154;2023-12-07T13:39:59;14.25;;;5.50;;
71464;SDS011;59274;49.874;9.154;2023-12-07T13:42:25;11.13;;;5.37;;
71464;SDS011;59274;49.874;9.154;2023-12-07T13:44:55;11.98;;;5.63;;
71464;SDS011;59274;49.874;9.154;2023-12-07T13:47:22;13.20;;;5.97;;
71464;SDS011;59274;49.874;9.154;2023-12-07T13:49:53;12.75;;;5.68;;
71464;SDS011;59274;49.874;9.154;2023-12-07T13:52:20;13.43;;;6.05;;
71464;SDS011;59274;49.874;9.154;2023-12-07T13:54:45;12.50;;;5.80;;
71464;SDS011;59274;49.874;9.154;2023-12-07T13:57:11;12.43;;;6.10;;
71464;SDS011;59274;49.874;9.154;2023-12-07T13:59:37;13.43;;;5.63;;
71464;SDS011;59274;49.874;9.154;2023-12-07T14:02:03;12.95;;;5.80;;
71464;SDS011;59274;49.874;9.154;2023-12-07T14:04:29;12.43;;;5.53;;
71464;SDS011;59274;49.874;9.154;2023-12-07T14:06:54;12.68;;;5.55;;
71464;SDS011;59274;49.874;9.154;2023-12-07T14:09:32;11.17;;;5.07;;
71464;SDS011;59274;49.874;9.154;2023-12-07T14:11:57;13.07;;;4.53;;
71464;SDS011;59274;49.874;9.154;2023-12-07T14:14:22;10.60;;;4.67;;
71464;SDS011;59274;49.874;9.154;2023-12-07T14:16:48;11.60;;;4.93;;
71464;SDS011;59274;49.874;9.154;2023-12-07T14:19:13;11.83;;;5.80;;
71464;SDS011;59274;49.874;9.154;2023-12-07T14:21:39;15.30;;;6.85;;
71464;SDS011;59274;49.874;9.154;2023-12-07T14:24:05;13.07;;;6.17;;
71464;SDS011;59274;49.874;9.154;2023-12-07T14:26:31;11.52;;;4.78;;
71464;SDS011;59274;49.874;9.154;2023-12-07T14:28:56;11.67;;;5.37;;